Time;durP1;ratioP1;P1;durP2;ratioP2;P2;SDS_P1;SDS_P2;PMS_P1;PMS_P2;Temp;Humidity;BMP_temperature;BMP_pressure;BME280_temperature;BME280_humidity;BME280_pressure;Samples;Min_cycle;Max_cycle;Signal;HPM_P1;HPM_P2
2023/08/11 00:00:12;;;;;;;33.15;7.75;;;;;;;22.99;49.45;100701.25;4880237;29;20120;-71
2023/08/11 00:02:42;;;;;;;41.67;8.07;;;;;;;22.98;49.27;100699.56;4880227;29;20448;-71
2023/08/11 00:05:11;;;;;;;33.58;7.00;;;;;;;22.98;49.58;100705.00;4880077;29;20088;-72
2023/08/11 00:07:39;;;;;;;41.60;7.80;;;;;;;22.96;49.64;100698.84;4879843;29;20049;-71
2023/08/11 00:10:08;;;;;;;34.63;7.40;;;;;;;22.95;49.65;100699.84;4879972;29;20412;-71
2023/08/11 00:12:36;;;;;;;33.60;6.38;;;;;;;22.94;49.58;100703.59;4879953;29;20059;-70
2023/08/11 00:15:06;;;;;;;30.80;6.88;;;;;;;22.93;49.66;100699.19;4879889;29;20461;-71
2023/08/11 00:17:35;;;;;;;37.90;7.25;;;;;;;22.91;49.69;100706.66;4879567;29;20049;-71
2023/08/11 00:20:07;;;;;;;26.75;6.65;;;;;;;22.90;49.91;100713.97;4879664;29;20069;-71
2023/08/11 00:22:37;;;;;;;32.67;6.75;;;;;;;22.90;49.74;100713.09;4879022;29;20515;-71
2023/08/11 00:25:05;;;;;;;25.50;6.00;;;;;;;22.89;49.78;100708.69;4879735;29;20133;-71
2023/08/11 00:27:34;;;;;;;29.50;5.90;;;;;;;22.87;49.77;100707.97;4879580;29;20147;-71
2023/08/11 00:30:04;;;;;;;27.85;5.55;;;;;;;22.84;49.73;100710.00;4879466;29;20365;-71
2023/08/11 00:32:34;;;;;;;28.20;5.97;;;;;;;22.82;49.89;100703.84;4879576;29;20136;-71
2023/08/11 00:35:05;;;;;;;25.95;6.13;;;;;;;22.83;49.72;100710.13;4879403;29;20060;-72
2023/08/11 00:37:33;;;;;;;25.75;6.38;;;;;;;22.81;50.09;100706.72;4879578;29;20056;-72
2023/08/11 00:40:03;;;;;;;27.88;6.55;;;;;;;22.79;49.99;100701.47;4879386;29;20491;-72
2023/08/11 00:42:32;;;;;;;23.98;5.68;;;;;;;22.79;50.06;100706.91;4879394;29;20056;-72
2023/08/11 00:45:00;;;;;;;19.52;5.22;;;;;;;22.77;50.21;100700.75;4879269;29;20049;-72
2023/08/11 00:47:28;;;;;;;19.70;5.00;;;;;;;22.78;50.29;100709.78;4878892;29;20515;-72
2023/08/11 00:49:57;;;;;;;23.02;5.43;;;;;;;22.77;50.15;100697.16;4879435;29;20423;-71
2023/08/11 00:52:27;;;;;;;22.02;5.18;;;;;;;22.76;50.12;100703.63;4879082;29;20060;-72
2023/08/11 00:54:58;;;;;;;20.33;5.45;;;;;;;22.75;50.25;100705.50;4879197;29;20151;-72
2023/08/11 00:57:26;;;;;;;22.13;5.30;;;;;;;22.74;50.28;100702.94;4879060;29;20408;-71
2023/08/11 00:59:56;;;;;;;14.45;4.10;;;;;;;22.74;50.20;100702.94;4878908;29;20579;-73
2023/08/11 01:02:24;;;;;;;19.98;4.60;;;;;;;22.72;50.24;100699.53;4878989;29;20053;-73
2023/08/11 01:04:52;;;;;;;16.60;4.10;;;;;;;22.71;50.45;100706.84;4878905;29;20053;-72
2023/08/11 01:07:27;;;;;;;21.45;5.07;;;;;;;22.69;50.55;100706.16;4879032;29;20152;-72
2023/08/11 01:10:03;;;;;;;16.33;4.57;;;;;;;22.69;50.56;100703.44;4879326;29;20140;-73
2023/08/11 01:12:39;;;;;;;14.13;3.92;;;;;;;22.67;50.42;100701.84;4878802;29;20135;-71
2023/08/11 01:15:14;;;;;;;15.55;4.07;;;;;;;22.66;50.58;100711.03;4878958;29;20053;-71
2023/08/11 01:17:46;;;;;;;19.73;4.18;;;;;;;22.65;50.64;100704.75;4878697;29;20069;-71
2023/08/11 01:20:16;;;;;;;15.23;3.85;;;;;;;22.64;50.62;100705.75;4878580;29;20615;-71
2023/08/11 01:22:47;;;;;;;13.93;3.95;;;;;;;22.63;50.69;100706.78;4878594;29;20673;-71
2023/08/11 01:25:17;;;;;;;13.98;3.38;;;;;;;22.63;50.52;100711.34;4878796;29;20568;-71
2023/08/11 01:27:47;;;;;;;13.63;3.65;;;;;;;22.61;50.52;100711.53;4878558;29;20506;-71
2023/08/11 01:30:15;;;;;;;15.07;4.70;;;;;;;22.60;50.68;100707.09;4878688;29;20057;-71
2023/08/11 01:32:44;;;;;;;12.32;3.53;;;;;;;22.59;50.40;100705.41;4878582;29;20074;-71
2023/08/11 01:35:13;;;;;;;15.30;4.20;;;;;;;22.59;50.68;100701.84;4878376;29;20063;-72
2023/08/11 01:37:50;;;;;;;10.65;3.55;;;;;;;22.58;50.42;100703.66;4878345;29;20052;-71
2023/08/11 01:40:19;;;;;;;12.27;3.35;;;;;;;22.56;50.65;100697.53;4878325;29;20057;-71
2023/08/11 01:42:48;;;;;;;11.40;3.33;;;;;;;22.56;50.68;100709.25;4878400;29;20045;-71
2023/08/11 01:45:22;;;;;;;10.55;3.20;;;;;;;22.55;50.65;100698.56;4878195;29;20108;-71
2023/08/11 01:47:51;;;;;;;11.40;3.30;;;;;;;22.53;50.76;100700.59;4878172;29;20053;-71
2023/08/11 01:50:20;;;;;;;11.48;3.22;;;;;;;22.52;50.86;100704.31;4878393;29;20053;-72
2023/08/11 01:52:50;;;;;;;14.52;3.40;;;;;;;22.51;50.87;100703.47;4878194;29;20403;-72
2023/08/11 01:55:20;;;;;;;9.85;2.90;;;;;;;22.49;50.68;100701.94;4878211;29;20578;-72
2023/08/11 01:57:49;;;;;;;10.45;3.50;;;;;;;22.48;50.82;100698.31;4878003;29;20057;-72
2023/08/11 02:00:26;;;;;;;12.93;3.00;;;;;;;22.48;50.89;100700.19;4877953;29;20393;-72
2023/08/11 02:02:55;;;;;;;10.43;3.35;;;;;;;22.47;50.78;100706.66;4878202;29;20049;-72
2023/08/11 02:05:24;;;;;;;9.52;3.30;;;;;;;22.46;50.90;100710.38;4877878;29;20136;-72
2023/08/11 02:07:55;;;;;;;12.30;2.92;;;;;;;22.44;50.79;100712.41;4877801;29;20238;-71
2023/08/11 02:10:25;;;;;;;12.93;3.15;;;;;;;22.43;50.77;100705.25;4877766;29;20132;-71
2023/08/11 02:12:53;;;;;;;8.20;2.83;;;;;;;22.42;51.17;100712.56;4877747;29;20112;-71
2023/08/11 02:15:22;;;;;;;8.07;3.03;;;;;;;22.42;51.00;100709.00;4877712;29;20400;-71
2023/08/11 02:17:50;;;;;;;10.18;2.85;;;;;;;22.41;50.81;100710.00;4877902;29;20057;-72
2023/08/11 02:20:21;;;;;;;10.43;2.78;;;;;;;22.40;50.89;100717.31;4877911;29;20133;-72
2023/08/11 02:22:51;;;;;;;7.63;2.70;;;;;;;22.38;50.73;100710.31;4877825;29;20049;-72
2023/08/11 02:25:20;;;;;;;7.28;2.78;;;;;;;22.37;50.70;100703.16;4877684;29;20131;-72
2023/08/11 02:27:49;;;;;;;8.00;3.03;;;;;;;22.35;51.14;100699.75;4877512;29;20498;-72
2023/08/11 02:30:18;;;;;;;8.40;3.00;;;;;;;22.36;51.10;100706.91;4877946;29;20105;-72
2023/08/11 02:32:46;;;;;;;10.23;2.90;;;;;;;22.35;50.87;100710.63;4877852;29;20080;-72
2023/08/11 02:35:17;;;;;;;6.97;2.47;;;;;;;22.34;50.92;100706.22;4877770;29;20052;-71
2023/08/11 02:37:46;;;;;;;8.52;2.90;;;;;;;22.32;50.79;100708.25;4877550;29;20065;-72
2023/08/11 02:40:14;;;;;;;7.22;2.60;;;;;;;22.31;50.89;100706.53;4877507;29;20122;-72
2023/08/11 02:42:48;;;;;;;12.25;3.10;;;;;;;22.30;50.85;100707.53;4877754;29;20049;-72
2023/08/11 02:45:17;;;;;;;6.55;2.67;;;;;;;22.28;50.97;100708.53;4878267;29;20049;-72
2023/08/11 02:47:46;;;;;;;8.30;2.90;;;;;;;22.28;50.93;100713.97;4881862;29;20045;-72
2023/08/11 02:50:14;;;;;;;7.80;2.83;;;;;;;22.27;50.81;100716.84;4881385;29;20140;-72
2023/08/11 02:52:42;;;;;;;7.22;2.40;;;;;;;22.25;51.05;100711.56;4881262;29;20428;-72
2023/08/11 02:55:11;;;;;;;7.13;2.58;;;;;;;22.24;51.21;100714.44;4881141;29;20495;-72
2023/08/11 02:57:39;;;;;;;6.78;2.15;;;;;;;22.24;50.88;100723.44;4881279;29;20059;-72
2023/08/11 03:00:13;;;;;;;6.85;2.60;;;;;;;22.23;51.09;100712.75;4881303;29;20164;-72
2023/08/11 03:02:45;;;;;;;7.25;2.30;;;;;;;22.22;51.09;100720.03;4881240;29;20080;-71
2023/08/11 03:05:14;;;;;;;;;;;;;;;22.20;51.22;100722.06;4881504;29;20049;-72
2023/08/11 03:07:43;;;;;;;4.53;2.13;;;;;;;22.18;50.93;100726.78;4881269;29;19930;-71
2023/08/11 03:10:12;;;;;;;8.68;2.70;;;;;;;22.18;51.12;100718.63;4880981;29;20057;-71
2023/08/11 03:12:40;;;;;;;7.32;2.30;;;;;;;22.18;51.01;100717.78;4881096;29;20049;-71
2023/08/11 03:15:09;;;;;;;5.88;2.15;;;;;;;22.15;51.19;100726.25;4881075;29;20132;-72
2023/08/11 03:17:37;;;;;;;5.60;2.13;;;;;;;22.15;51.37;100724.38;4880773;29;20057;-71
2023/08/11 03:20:12;;;;;;;5.07;2.13;;;;;;;22.12;51.44;100722.00;4880725;29;20092;-72
2023/08/11 03:22:43;;;;;;;7.72;2.50;;;;;;;22.12;51.63;100724.72;4880889;29;20053;-71
2023/08/11 03:25:12;;;;;;;4.32;2.00;;;;;;;22.12;51.08;100723.84;4880909;29;20055;-71
2023/08/11 03:27:41;;;;;;;6.05;2.13;;;;;;;22.11;51.31;100728.44;4880704;29;20113;-71
2023/08/11 03:30:12;;;;;;;6.32;2.40;;;;;;;22.11;51.19;100731.16;4880673;29;20080;-71
2023/08/11 03:32:41;;;;;;;7.65;2.40;;;;;;;22.07;51.44;100727.03;4880517;29;20061;-71
2023/08/11 03:35:11;;;;;;;6.40;2.60;;;;;;;22.07;51.23;100732.44;4880673;29;20057;-71
2023/08/11 03:37:40;;;;;;;5.95;2.22;;;;;;;22.07;51.41;100737.88;4880573;29;20075;-71
2023/08/11 03:40:12;;;;;;;6.72;2.28;;;;;;;22.05;51.33;100737.16;4880430;29;20053;-71
2023/08/11 03:42:41;;;;;;;;;;;;;;;22.05;51.35;100733.59;4880851;29;20088;-71
2023/08/11 03:45:12;;;;;;;7.05;3.33;;;;;;;22.03;51.46;100739.19;4880355;29;19924;-71
2023/08/11 03:47:42;;;;;;;7.25;3.00;;;;;;;22.03;51.36;100735.63;4880566;29;20056;-71
2023/08/11 03:50:12;;;;;;;6.88;2.90;;;;;;;22.03;51.43;100739.19;4880285;29;20492;-71
2023/08/11 03:52:40;;;;;;;6.38;2.85;;;;;;;22.00;51.22;100744.91;4880190;29;20132;-71
2023/08/11 03:55:10;;;;;;;7.53;2.80;;;;;;;22.00;51.45;100742.19;4880366;29;20049;-71
2023/08/11 03:57:39;;;;;;;5.13;2.17;;;;;;;21.98;51.33;100744.22;4878679;29;20176;-72
2023/08/11 04:00:14;;;;;;;7.05;2.53;;;;;;;21.97;51.24;100742.50;4880075;29;20052;-72
2023/08/11 04:02:44;;;;;;;6.75;2.60;;;;;;;21.96;51.61;100740.81;4880262;29;20128;-71
2023/08/11 04:05:13;;;;;;;4.88;2.65;;;;;;;21.95;51.49;100747.25;4880100;29;20053;-71
2023/08/11 04:07:42;;;;;;;6.18;2.38;;;;;;;21.95;51.64;100744.53;4879989;29;20064;-71
2023/08/11 04:10:11;;;;;;;5.60;2.30;;;;;;;21.95;51.29;100752.66;4880275;29;20045;-71
2023/08/11 04:12:40;;;;;;;5.72;2.80;;;;;;;21.93;51.85;100751.97;4880067;29;20109;-72
2023/08/11 04:15:08;;;;;;;5.50;2.88;;;;;;;21.93;51.83;100757.41;4879989;29;20471;-71
2023/08/11 04:17:37;;;;;;;6.30;2.53;;;;;;;21.92;51.82;100761.13;4879764;29;20045;-71
2023/08/11 04:20:12;;;;;;;4.82;2.50;;;;;;;21.91;51.65;100764.88;4879801;29;20133;-71
2023/08/11 04:22:42;;;;;;;6.20;2.42;;;;;;;21.90;51.35;100766.69;4879628;29;20148;-71
2023/08/11 04:25:13;;;;;;;6.00;2.28;;;;;;;21.89;52.04;100765.00;4879947;29;20061;-71
2023/08/11 04:27:41;;;;;;;5.90;2.40;;;;;;;21.90;51.64;100776.69;4879747;29;20095;-71
2023/08/11 04:30:10;;;;;;;4.35;2.30;;;;;;;21.88;51.97;100776.00;4879666;29;20076;-71
2023/08/11 04:32:39;;;;;;;6.43;2.45;;;;;;;21.88;51.85;100771.44;4879628;29;20104;-72
2023/08/11 04:35:07;;;;;;;6.65;2.28;;;;;;;21.88;51.86;100771.44;4879528;29;20052;-72
2023/08/11 04:37:36;;;;;;;4.93;2.65;;;;;;;21.85;51.49;100768.19;4879761;29;20049;-72
2023/08/11 04:40:09;;;;;;;5.15;2.50;;;;;;;21.86;51.69;100778.88;4879522;29;20052;-72
2023/08/11 04:42:38;;;;;;;5.00;2.30;;;;;;;21.86;51.70;100775.31;4879457;29;20045;-71
2023/08/11 04:45:07;;;;;;;5.75;2.28;;;;;;;21.86;51.94;100780.75;4879452;29;20053;-71
2023/08/11 04:47:35;;;;;;;3.90;2.15;;;;;;;21.85;51.46;100787.19;4879258;29;20065;-72
2023/08/11 04:50:03;;;;;;;4.28;2.20;;;;;;;21.84;51.83;100793.63;4879297;29;20076;-71
2023/08/11 04:52:32;;;;;;;5.18;2.38;;;;;;;21.82;51.98;100785.63;4879167;29;20061;-72
2023/08/11 04:55:00;;;;;;;5.78;2.50;;;;;;;21.83;51.84;100789.22;4879411;29;20096;-71
2023/08/11 04:57:32;;;;;;;4.90;2.30;;;;;;;21.82;51.96;100793.78;4879006;29;20051;-71
2023/08/11 05:00:02;;;;;;;5.03;2.35;;;;;;;21.81;51.80;100797.50;4879254;29;20060;-71
2023/08/11 05:02:34;;;;;;;4.43;2.33;;;;;;;21.81;52.17;100808.38;4879060;29;20071;-72
2023/08/11 05:05:05;;;;;;;4.40;2.20;;;;;;;21.81;52.13;100797.50;4879267;29;20136;-71
2023/08/11 05:07:33;;;;;;;6.43;2.10;;;;;;;21.79;51.92;100801.34;4879000;29;20069;-72
2023/08/11 05:10:01;;;;;;;4.28;2.20;;;;;;;21.81;51.95;100810.19;4878699;29;20049;-72
2023/08/11 05:12:31;;;;;;;6.53;2.20;;;;;;;21.80;51.89;100800.34;4878869;29;20140;-72
2023/08/11 05:14:59;;;;;;;3.75;1.92;;;;;;;21.79;52.02;100812.22;4878695;29;20053;-72
2023/08/11 05:17:27;;;;;;;6.45;2.30;;;;;;;21.77;52.02;100815.09;4878686;29;20056;-72
2023/08/11 05:19:58;;;;;;;6.68;2.30;;;;;;;21.77;51.93;100811.53;4878786;29;20057;-71
2023/08/11 05:22:27;;;;;;;3.95;1.90;;;;;;;21.76;51.98;100813.38;4878517;29;20084;-71
2023/08/11 05:24:58;;;;;;;5.22;2.00;;;;;;;21.77;52.03;100822.38;4878593;29;20052;-71
2023/08/11 05:27:27;;;;;;;4.85;2.13;;;;;;;21.76;52.23;100809.81;4878530;29;20056;-71
2023/08/11 05:29:56;;;;;;;4.47;2.17;;;;;;;21.75;51.98;100816.25;4878359;29;20555;-72
2023/08/11 05:32:26;;;;;;;4.35;2.05;;;;;;;21.73;52.35;100823.69;4878679;29;20048;-72
2023/08/11 05:34:55;;;;;;;3.03;1.70;;;;;;;21.74;52.24;100817.25;4878494;29;20061;-72
2023/08/11 05:37:24;;;;;;;3.90;2.00;;;;;;;21.74;52.20;100818.13;4878267;29;20534;-72
2023/08/11 05:39:53;;;;;;;4.25;2.05;;;;;;;21.76;52.16;100831.53;4878126;29;20176;-73
2023/08/11 05:42:23;;;;;;;4.35;1.98;;;;;;;21.73;52.35;100819.13;4878451;29;20132;-72
2023/08/11 05:44:52;;;;;;;4.25;2.15;;;;;;;21.74;52.41;100822.69;4878336;29;20136;-72
2023/08/11 05:47:21;;;;;;;4.07;2.15;;;;;;;21.72;52.11;100825.56;4878181;29;20132;-72
2023/08/11 05:49:51;;;;;;;3.88;2.00;;;;;;;21.73;52.36;100829.13;4878248;29;20372;-71
2023/08/11 05:52:19;;;;;;;3.55;2.03;;;;;;;21.71;52.41;100824.72;4878986;29;20060;-75
2023/08/11 05:54:48;;;;;;;4.45;1.98;;;;;;;21.73;52.53;100824.56;4878895;29;20112;-72
2023/08/11 05:57:16;;;;;;;3.95;2.20;;;;;;;21.73;52.55;100826.41;4878193;29;20049;-72
2023/08/11 05:59:44;;;;;;;5.95;1.90;;;;;;;21.71;52.65;100813.84;4877917;29;20113;-73
2023/08/11 06:02:12;;;;;;;3.65;1.92;;;;;;;21.71;52.44;100826.53;4878007;29;20096;-72
2023/08/11 06:04:44;;;;;;;3.55;1.95;;;;;;;21.71;52.94;100818.41;4877899;29;20049;-74
2023/08/11 06:07:12;;;;;;;4.70;2.08;;;;;;;21.78;53.58;100827.66;4877842;29;20053;-73
2023/08/11 06:09:40;;;;;;;3.75;1.85;;;;;;;21.78;53.71;100835.81;4878057;29;20053;-73
2023/08/11 06:12:09;;;;;;;4.35;2.17;;;;;;;21.79;53.72;100823.09;4877802;29;20132;-73
2023/08/11 06:14:37;;;;;;;4.63;2.03;;;;;;;21.81;53.96;100829.22;4875999;29;20076;-73
2023/08/11 06:17:05;;;;;;;4.05;2.10;;;;;;;21.81;54.13;100831.94;4877474;29;20049;-74
2023/08/11 06:19:41;;;;;;;4.67;2.20;;;;;;;21.82;54.36;100841.81;4876924;29;20089;-73
2023/08/11 06:22:10;;;;;;;5.25;2.40;;;;;;;21.84;54.50;100837.06;4877701;29;20284;-73
2023/08/11 06:24:38;;;;;;;5.70;2.40;;;;;;;21.85;54.52;100846.94;4877549;29;20068;-73
2023/08/11 06:27:06;;;;;;;5.10;2.38;;;;;;;21.84;54.98;100843.34;4877716;29;20202;-74
2023/08/11 06:29:35;;;;;;;5.25;2.13;;;;;;;21.86;54.76;100843.19;4877639;29;20053;-73
2023/08/11 06:32:04;;;;;;;8.90;2.50;;;;;;;21.88;55.09;100843.91;4877559;29;20049;-73
2023/08/11 06:34:32;;;;;;;5.82;2.22;;;;;;;21.88;54.87;100841.19;4877464;29;20135;-73
2023/08/11 06:37:01;;;;;;;5.88;2.15;;;;;;;21.88;55.16;100852.06;4877711;29;20056;-72
2023/08/11 06:39:30;;;;;;;6.25;2.75;;;;;;;21.89;55.25;100842.91;4877718;29;20053;-72
2023/08/11 06:41:58;;;;;;;3.67;1.98;;;;;;;21.91;55.84;100847.19;4877473;29;20113;-73
2023/08/11 06:44:26;;;;;;;5.38;2.17;;;;;;;21.92;55.92;100848.91;4877550;29;20356;-73
2023/08/11 06:46:54;;;;;;;5.03;2.38;;;;;;;21.92;55.72;100848.03;4877488;29;20396;-73
2023/08/11 06:49:22;;;;;;;3.90;1.88;;;;;;;21.92;55.71;100845.31;4877819;29;20053;-74
2023/08/11 06:51:50;;;;;;;4.68;2.20;;;;;;;21.94;55.76;100854.16;4877271;29;20057;-73
2023/08/11 06:54:20;;;;;;;5.65;2.10;;;;;;;21.94;55.85;100852.31;4877438;29;20049;-73
2023/08/11 06:56:48;;;;;;;4.25;2.17;;;;;;;21.96;55.73;100854.88;4877620;29;20611;-73
2023/08/11 06:59:17;;;;;;;6.68;2.28;;;;;;;21.98;56.09;100861.00;4877289;29;20049;-72
2023/08/11 07:01:45;;;;;;;7.22;2.40;;;;;;;21.98;55.83;100855.56;4877325;29;20057;-73
2023/08/11 07:04:16;;;;;;;5.18;2.20;;;;;;;21.99;56.25;100860.00;4877435;29;20079;-72
2023/08/11 07:06:44;;;;;;;4.05;2.20;;;;;;;21.98;56.15;100851.00;4877200;29;20136;-73
2023/08/11 07:09:12;;;;;;;4.85;2.20;;;;;;;21.99;56.21;100857.28;4877344;29;20053;-72
2023/08/11 07:11:42;;;;;;;4.63;2.20;;;;;;;22.01;56.43;100858.00;4877446;29;20187;-72
2023/08/11 07:14:10;;;;;;;5.20;2.42;;;;;;;22.02;56.22;100853.44;4877173;29;20051;-72
2023/08/11 07:16:38;;;;;;;4.00;2.03;;;;;;;22.03;56.39;100855.97;4877372;29;20053;-76
2023/08/11 07:19:07;;;;;;;6.28;2.30;;;;;;;22.04;56.39;100857.69;4877410;29;20457;-72
2023/08/11 07:21:35;;;;;;;6.03;2.45;;;;;;;22.04;56.39;100849.53;4877190;29;20071;-73
2023/08/11 07:24:03;;;;;;;6.15;2.30;;;;;;;22.06;56.28;100855.66;4877372;29;20053;-73
2023/08/11 07:26:32;;;;;;;4.53;2.00;;;;;;;22.06;56.41;100858.38;4877177;29;20112;-72
2023/08/11 07:29:01;;;;;;;5.22;2.22;;;;;;;22.08;56.68;100861.84;4876867;29;20474;-73
2023/08/11 07:31:30;;;;;;;6.70;2.17;;;;;;;22.07;56.69;100857.41;4878270;29;20049;-73
2023/08/11 07:33:58;;;;;;;6.88;2.30;;;;;;;22.09;56.93;100857.25;4880734;29;20506;-74
2023/08/11 07:36:26;;;;;;;4.60;2.00;;;;;;;22.09;56.85;100859.97;4880665;29;20052;-72
2023/08/11 07:38:55;;;;;;;5.88;2.30;;;;;;;22.11;56.76;100863.41;4880301;29;20176;-72
2023/08/11 07:41:43;;;;;;;9.45;2.78;;;;;;;22.12;56.75;100855.09;4882137;29;20049;-76
2023/08/11 07:44:14;;;;;;;5.20;2.20;;;;;;;22.13;56.71;100867.69;4882408;29;20060;-75
2023/08/11 07:46:42;;;;;;;8.30;2.13;;;;;;;22.14;56.66;100860.38;4882775;29;20053;-73
2023/08/11 07:49:12;;;;;;;5.47;2.13;;;;;;;22.15;56.89;100860.22;4882435;29;20076;-73
2023/08/11 07:51:40;;;;;;;6.13;2.30;;;;;;;22.16;57.11;100861.94;4879288;29;20101;-72
2023/08/11 07:54:10;;;;;;;9.63;2.45;;;;;;;22.17;56.99;100862.78;4881435;29;20053;-72
2023/08/11 07:56:38;;;;;;;8.20;2.22;;;;;;;22.17;57.06;100860.91;4881898;29;20051;-73
2023/08/11 07:59:06;;;;;;;7.35;2.15;;;;;;;22.19;57.08;100867.06;4881936;29;20064;-74
2023/08/11 08:01:36;;;;;;;10.68;2.45;;;;;;;22.20;57.34;100866.06;4881806;29;20100;-73
2023/08/11 08:04:05;;;;;;;7.60;2.20;;;;;;;22.22;57.39;100866.78;4881869;29;20060;-74
2023/08/11 08:06:35;;;;;;;6.03;2.20;;;;;;;22.23;57.09;100867.63;4885057;29;20048;-73
2023/08/11 08:09:09;;;;;;;7.78;2.13;;;;;;;22.24;57.19;100862.03;4886417;29;20049;-73
2023/08/11 08:11:37;;;;;;;8.10;2.58;;;;;;;22.24;57.16;100872.91;4886092;29;20049;-72
2023/08/11 08:14:06;;;;;;;5.00;2.17;;;;;;;22.26;57.29;100867.31;4886057;29;20053;-73
2023/08/11 08:16:34;;;;;;;5.32;2.20;;;;;;;22.27;57.30;100872.59;4883667;29;20061;-72
2023/08/11 08:19:05;;;;;;;7.18;2.50;;;;;;;22.28;57.28;100877.00;4882288;29;20105;-72
2023/08/11 08:21:34;;;;;;;9.07;2.33;;;;;;;22.30;57.27;100873.31;4883534;29;20500;-72
2023/08/11 08:24:04;;;;;;;5.60;2.33;;;;;;;22.30;57.54;100871.44;4881725;29;20109;-75
2023/08/11 08:26:32;;;;;;;7.30;2.17;;;;;;;22.31;57.23;100873.16;4881009;29;20490;-73
2023/08/11 08:29:01;;;;;;;7.00;2.45;;;;;;;22.32;57.29;100874.00;4882156;29;20053;-73
2023/08/11 08:31:31;;;;;;;7.30;2.35;;;;;;;22.33;57.27;100873.84;4882507;29;20053;-75
2023/08/11 08:34:00;;;;;;;5.18;2.25;;;;;;;22.35;57.33;100870.97;4882501;29;20469;-74
2023/08/11 08:36:30;;;;;;;6.25;2.22;;;;;;;22.36;57.45;100867.25;4882553;29;20396;-72
2023/08/11 08:38:58;;;;;;;4.95;2.10;;;;;;;22.36;57.41;100868.09;4880076;29;20101;-73
2023/08/11 08:41:30;;;;;;;6.40;2.35;;;;;;;22.37;57.51;100868.94;4879625;29;20057;-72
2023/08/11 08:44:01;;;;;;;6.22;2.30;;;;;;;22.38;57.61;100863.34;4878605;29;20384;-72
2023/08/11 08:46:32;;;;;;;5.60;2.53;;;;;;;22.41;57.39;100875.81;4879482;29;20049;-72
2023/08/11 08:49:08;;;;;;;6.65;2.10;;;;;;;22.41;57.34;100870.38;4879399;29;20180;-73
2023/08/11 08:51:39;;;;;;;6.95;2.40;;;;;;;22.42;57.44;100872.06;4878907;29;20053;-73
2023/08/11 08:54:09;;;;;;;6.13;2.40;;;;;;;22.43;57.41;100871.06;4879118;29;20092;-73
2023/08/11 08:56:38;;;;;;;6.35;2.08;;;;;;;22.46;57.60;100873.47;4879024;29;20045;-73
2023/08/11 08:59:06;;;;;;;6.70;2.30;;;;;;;22.46;57.51;100873.47;4878930;29;20053;-72
2023/08/11 09:01:36;;;;;;;8.27;2.40;;;;;;;22.47;57.71;100869.72;4879103;29;20057;-73
2023/08/11 09:04:06;;;;;;;5.28;2.25;;;;;;;22.48;57.70;100876.88;4879117;29;20080;-73
2023/08/11 09:06:35;;;;;;;5.53;2.35;;;;;;;22.50;57.58;100885.75;4879417;29;20049;-74
2023/08/11 09:09:07;;;;;;;5.68;2.45;;;;;;;22.50;57.54;100878.44;4878827;29;20053;-73
2023/08/11 09:11:38;;;;;;;4.97;2.13;;;;;;;22.52;57.54;100879.16;4879020;29;20057;-74
2023/08/11 09:14:07;;;;;;;5.30;2.55;;;;;;;22.52;57.50;100879.16;4879101;29;20053;-73
2023/08/11 09:16:36;;;;;;;6.78;2.33;;;;;;;22.55;57.67;100877.97;4878936;29;20470;-73
2023/08/11 09:19:05;;;;;;;5.80;2.47;;;;;;;22.57;57.77;100875.94;4878895;29;20049;-73
2023/08/11 09:21:34;;;;;;;6.75;2.47;;;;;;;22.57;57.86;100871.38;4878515;29;20093;-72
2023/08/11 09:24:03;;;;;;;7.90;2.42;;;;;;;22.59;57.83;100873.97;4878981;29;20113;-73
2023/08/11 09:26:33;;;;;;;4.13;2.05;;;;;;;22.61;57.74;100871.06;4878808;29;20092;-74
2023/08/11 09:29:01;;;;;;;6.28;2.50;;;;;;;22.63;57.75;100871.78;4878660;29;20048;-74
2023/08/11 09:31:29;;;;;;;6.05;2.25;;;;;;;22.64;57.65;100874.31;4878619;29;20057;-73
2023/08/11 09:34:10;;;;;;;6.57;2.75;;;;;;;22.65;57.84;100867.88;4878423;29;20136;-74
2023/08/11 09:36:39;;;;;;;6.00;2.30;;;;;;;22.67;57.70;100865.00;4877340;29;20080;-74
2023/08/11 09:39:08;;;;;;;6.47;2.63;;;;;;;22.69;57.73;100869.28;4878603;29;20132;-74
2023/08/11 09:41:42;;;;;;;7.72;2.50;;;;;;;22.71;57.75;100860.97;4878310;29;20653;-74
2023/08/11 09:44:11;;;;;;;5.03;2.42;;;;;;;22.73;57.73;100876.13;4878419;29;20052;-75
2023/08/11 09:46:40;;;;;;;5.50;2.63;;;;;;;22.75;57.94;100868.66;4878092;29;20048;-74
2023/08/11 09:49:09;;;;;;;5.95;2.50;;;;;;;22.77;57.80;100863.06;4878293;29;20057;-75
2023/08/11 09:51:38;;;;;;;6.18;2.53;;;;;;;22.77;57.75;100860.31;4878288;29;20055;-72
2023/08/11 09:54:09;;;;;;;4.88;2.42;;;;;;;22.78;57.91;100857.47;4878098;29;20049;-72
2023/08/11 09:56:40;;;;;;;5.32;2.45;;;;;;;22.76;57.92;100854.03;4878227;29;20071;-72
2023/08/11 09:59:14;;;;;;;4.40;2.10;;;;;;;22.82;57.83;100858.00;4878100;29;20061;-74
2023/08/11 10:01:44;;;;;;;6.00;2.20;;;;;;;22.85;58.14;100857.72;4877858;29;20061;-73
2023/08/11 10:04:19;;;;;;;6.10;2.33;;;;;;;22.86;58.03;100862.16;4878044;29;20057;-72
2023/08/11 10:06:53;;;;;;;5.03;2.40;;;;;;;22.89;57.90;100864.56;4878165;29;20049;-73
2023/08/11 10:09:24;;;;;;;6.45;2.38;;;;;;;22.92;57.91;100860.69;4878096;29;20072;-73
2023/08/11 10:11:54;;;;;;;5.80;2.50;;;;;;;22.93;57.86;100859.66;4877786;29;20136;-74
2023/08/11 10:14:28;;;;;;;6.43;2.70;;;;;;;22.95;58.05;100855.75;4878191;29;20149;-73
2023/08/11 10:17:00;;;;;;;6.55;2.72;;;;;;;22.98;57.92;100855.47;4877883;29;20053;-73
2023/08/11 10:19:29;;;;;;;4.72;2.47;;;;;;;23.00;57.78;100855.31;4877843;29;20410;-74
2023/08/11 10:21:58;;;;;;;5.68;2.47;;;;;;;23.01;57.92;100851.56;4877737;29;20059;-74
2023/08/11 10:24:32;;;;;;;5.90;2.50;;;;;;;23.05;57.84;100853.81;4877428;29;20080;-74
2023/08/11 10:27:01;;;;;;;5.28;2.55;;;;;;;23.07;57.88;100851.81;4877923;29;20057;-73
2023/08/11 10:29:30;;;;;;;3.92;2.08;;;;;;;23.10;57.83;100845.19;4877674;29;20517;-73
2023/08/11 10:31:59;;;;;;;6.28;2.60;;;;;;;23.12;57.86;100859.47;4877633;29;20057;-74
2023/08/11 10:34:28;;;;;;;4.47;2.28;;;;;;;23.15;57.89;100842.81;4877561;29;20495;-74
2023/08/11 10:36:57;;;;;;;5.78;2.80;;;;;;;23.17;57.96;100840.81;4877506;29;20438;-73
2023/08/11 10:39:25;;;;;;;6.25;2.78;;;;;;;23.20;57.94;100839.63;4877992;29;20060;-73
2023/08/11 10:41:56;;;;;;;6.15;2.78;;;;;;;23.24;57.89;100835.56;4877726;29;20060;-73
2023/08/11 10:44:29;;;;;;;4.40;2.38;;;;;;;23.26;58.00;100838.97;4877566;29;20109;-74
2023/08/11 10:47:03;;;;;;;5.45;2.58;;;;;;;23.28;57.94;100835.09;4877611;29;20049;-73
2023/08/11 10:49:34;;;;;;;5.20;2.63;;;;;;;23.31;58.10;100834.78;4877423;29;20049;-74
2023/08/11 10:52:03;;;;;;;7.22;2.80;;;;;;;23.32;58.26;100839.19;4877718;29;20072;-74
2023/08/11 10:54:32;;;;;;;6.10;2.60;;;;;;;23.35;58.24;100833.41;4877589;29;20055;-73
2023/08/11 10:57:02;;;;;;;4.45;2.30;;;;;;;23.38;58.25;100827.69;4877346;29;20056;-72
2023/08/11 10:59:33;;;;;;;4.65;2.30;;;;;;;23.41;58.13;100831.94;4877371;29;20056;-73
2023/08/11 11:02:02;;;;;;;5.93;2.67;;;;;;;23.46;58.01;100834.19;4877153;29;20092;-74
2023/08/11 11:04:32;;;;;;;5.90;2.60;;;;;;;23.48;57.85;100826.72;4877468;29;20059;-74
2023/08/11 11:07:02;;;;;;;5.82;2.67;;;;;;;23.50;57.91;100824.69;4879313;29;20053;-72
2023/08/11 11:09:30;;;;;;;4.88;2.53;;;;;;;23.54;57.86;100826.03;4881258;29;20053;-74
2023/08/11 11:11:58;;;;;;;5.10;2.60;;;;;;;23.58;57.62;100827.44;4881034;29;20109;-73
2023/08/11 11:14:27;;;;;;;5.43;2.55;;;;;;;23.61;57.79;100830.72;4880990;29;20049;-72
2023/08/11 11:16:59;;;;;;;4.75;2.42;;;;;;;23.64;57.69;100830.41;4880997;29;20143;-74
2023/08/11 11:19:32;;;;;;;4.53;2.60;;;;;;;23.66;57.68;100831.09;4881130;29;20105;-74
2023/08/11 11:22:03;;;;;;;4.53;2.42;;;;;;;23.72;57.51;100817.81;4880922;29;20394;-74
2023/08/11 11:24:32;;;;;;;4.32;2.28;;;;;;;23.75;57.29;100822.97;4880846;29;20532;-72
2023/08/11 11:27:00;;;;;;;4.40;2.33;;;;;;;23.80;57.54;100818.72;4880743;29;20053;-73
2023/08/11 11:29:29;;;;;;;7.38;2.53;;;;;;;23.84;57.35;100811.94;4880962;29;20059;-73
2023/08/11 11:31:59;;;;;;;4.43;2.45;;;;;;;23.87;57.49;100811.59;4880800;29;20124;-73
2023/08/11 11:34:27;;;;;;;4.55;2.50;;;;;;;23.92;57.06;100817.38;4881005;29;20129;-74